Wirt, Minnesota
Current Conditions -  °F | °C
As of 1:13 PM on Sunday 21 Dec 2014 (Local Time) from KFOZ Reporting Station
Haze Haze  
Wind Chill: 25°   Ceiling: 600
Heat Index: 32°   Visibility: 5mi
Dew Point: 28°   Wind: 8mph
Humidity: 87%   Direction: 170°S
Pressure: 29.71"   Gusts: NA
Location:  47.73°N, 93.96°W
Report Text: KFOZ 211913Z AUTO 17007KT 5SM BR OVC006 00/M02 A2971 RMK AO2
Loading
Personal Weather Stations






























Interactive Weather Map New forecast layout! Learn more

10-Day Weather Forecast

Advertisements
Track Severe Weather on mobile